createdAt,value
2018-02-20T00:00:37.036Z,4.50
2018-02-20T00:03:05.595Z,4.50
2018-02-20T00:05:34.099Z,4.60
2018-02-20T00:08:02.395Z,4.60
2018-02-20T00:10:31.656Z,4.60
2018-02-20T00:13:00.239Z,4.60
2018-02-20T00:15:28.675Z,4.60
2018-02-20T00:17:57.236Z,4.60
2018-02-20T00:20:26.416Z,4.50
2018-02-20T00:22:55.716Z,4.60
2018-02-20T00:25:24.697Z,4.60
2018-02-20T00:27:52.976Z,4.60
2018-02-20T00:30:21.315Z,4.60
2018-02-20T00:32:49.736Z,4.60
2018-02-20T00:35:17.876Z,4.60
2018-02-20T00:37:46.216Z,4.60
2018-02-20T00:40:15.237Z,4.60
2018-02-20T00:42:43.536Z,4.60
2018-02-20T00:45:11.536Z,4.50
2018-02-20T00:47:40.677Z,4.50
2018-02-20T00:50:08.776Z,4.50
2018-02-20T00:52:36.976Z,4.50
2018-02-20T00:55:06.257Z,4.60
2018-02-20T00:57:34.516Z,4.50
2018-02-20T01:00:02.896Z,4.60
2018-02-20T01:02:31.996Z,4.60
2018-02-20T01:05:00.176Z,4.60
2018-02-20T01:07:28.556Z,4.60
2018-02-20T01:09:56.816Z,4.60
2018-02-20T01:12:25.438Z,4.60
2018-02-20T01:14:54.835Z,4.50
2018-02-20T01:17:24.136Z,4.60
2018-02-20T01:19:53.435Z,4.50
2018-02-20T01:22:22.597Z,4.60
2018-02-20T01:24:50.896Z,4.50
2018-02-20T01:27:20.056Z,4.50
2018-02-20T01:29:48.521Z,4.40
2018-02-20T01:32:16.915Z,4.50
2018-02-20T01:34:45.235Z,4.50
2018-02-20T01:37:14.396Z,4.50
2018-02-20T01:39:42.896Z,4.50
2018-02-20T01:42:11.876Z,4.50
2018-02-20T01:44:40.156Z,4.50
2018-02-20T01:47:08.215Z,4.60
2018-02-20T01:49:36.480Z,4.60
2018-02-20T01:52:04.836Z,4.70
2018-02-20T01:54:33.036Z,4.70
2018-02-20T01:57:01.076Z,4.70
2018-02-20T01:59:29.296Z,4.60
2018-02-20T02:01:57.677Z,4.60
2018-02-20T02:04:25.956Z,4.60
2018-02-20T02:06:54.019Z,4.70
2018-02-20T02:09:22.196Z,4.60
2018-02-20T02:11:50.575Z,4.70
2018-02-20T02:14:19.335Z,4.60
2018-02-20T02:16:47.635Z,4.60
2018-02-20T02:19:16.015Z,4.60
2018-02-20T02:21:44.076Z,4.60
2018-02-20T02:24:12.356Z,4.60
2018-02-20T02:26:40.623Z,4.70
2018-02-20T02:29:09.156Z,4.70
2018-02-20T02:31:37.916Z,4.70
2018-02-20T02:34:07.196Z,4.80
2018-02-20T02:36:35.617Z,4.80
2018-02-20T02:39:03.937Z,4.80
2018-02-20T02:41:32.136Z,4.80
2018-02-20T02:44:00.617Z,4.70
2018-02-20T02:46:28.797Z,4.60
2018-02-20T02:48:57.856Z,4.50
2018-02-20T02:51:25.955Z,4.50
2018-02-20T02:53:54.436Z,4.50
2018-02-20T02:56:22.577Z,4.50
2018-02-20T02:58:50.877Z,4.50
2018-02-20T03:01:19.257Z,4.50
2018-02-20T03:03:47.636Z,4.50
2018-02-20T03:06:16.637Z,4.50
2018-02-20T03:08:45.635Z,4.50
2018-02-20T03:11:14.596Z,4.50
2018-02-20T03:13:42.879Z,4.40
2018-02-20T03:16:11.016Z,4.40
2018-02-20T03:18:39.016Z,4.50
2018-02-20T03:21:07.396Z,4.50
2018-02-20T03:23:35.775Z,4.50
2018-02-20T03:26:03.955Z,4.50
2018-02-20T03:28:32.116Z,4.50
2018-02-20T03:31:00.398Z,4.50
2018-02-20T03:33:30.119Z,4.50
2018-02-20T03:35:58.956Z,4.50
2018-02-20T03:38:27.056Z,4.50
2018-02-20T03:40:55.316Z,4.50
2018-02-20T03:43:23.775Z,4.40
2018-02-20T03:45:52.236Z,4.40
2018-02-20T03:48:20.216Z,4.30
2018-02-20T03:50:48.855Z,4.40
2018-02-20T03:53:17.536Z,4.40
2018-02-20T03:55:46.117Z,4.40
2018-02-20T03:58:14.395Z,4.40
2018-02-20T04:00:42.595Z,4.40
2018-02-20T04:03:11.876Z,4.50
2018-02-20T04:05:40.195Z,4.50
2018-02-20T04:08:08.716Z,4.50
2018-02-20T04:10:36.876Z,4.50
2018-02-20T04:13:05.475Z,4.50
2018-02-20T04:15:33.635Z,4.50
2018-02-20T04:18:01.837Z,4.50
2018-02-20T04:20:30.815Z,4.50
2018-02-20T04:22:58.995Z,4.50
2018-02-20T04:25:27.578Z,4.40
2018-02-20T04:27:55.635Z,4.40
2018-02-20T04:30:23.815Z,4.40
2018-02-20T04:32:51.899Z,4.40
2018-02-20T04:35:19.959Z,4.30
2018-02-20T04:37:48.136Z,4.30
2018-02-20T04:40:16.196Z,4.40
2018-02-20T04:42:44.677Z,4.30
2018-02-20T04:45:12.955Z,4.40
2018-02-20T04:47:41.136Z,4.40
2018-02-20T04:50:09.197Z,4.40
2018-02-20T04:52:37.475Z,4.40
2018-02-20T04:55:05.436Z,4.40
2018-02-20T04:57:33.515Z,4.40
2018-02-20T05:00:02.197Z,4.40
2018-02-20T05:02:30.656Z,4.30
2018-02-20T05:04:59.196Z,4.30
2018-02-20T05:07:27.455Z,4.20
2018-02-20T05:09:56.421Z,4.30
2018-02-20T05:12:24.716Z,4.30
2018-02-20T05:14:53.997Z,4.30
2018-02-20T05:17:23.196Z,4.40
2018-02-20T05:19:51.775Z,4.30
2018-02-20T05:22:19.936Z,4.30
2018-02-20T05:24:48.016Z,4.30
2018-02-20T05:27:17.116Z,4.40
2018-02-20T05:29:45.375Z,4.40
2018-02-20T05:32:13.876Z,4.40
2018-02-20T05:34:42.257Z,4.40
2018-02-20T05:37:11.455Z,4.50
2018-02-20T05:39:39.515Z,4.40
2018-02-20T05:42:07.796Z,4.50
2018-02-20T05:44:36.075Z,4.50
2018-02-20T05:47:04.096Z,4.60
2018-02-20T05:49:32.180Z,4.60
2018-02-20T05:52:00.497Z,4.60
2018-02-20T05:54:29.476Z,4.60
2018-02-20T05:56:57.856Z,4.60
2018-02-20T05:59:26.035Z,4.60
2018-02-20T06:01:54.100Z,4.50
2018-02-20T06:04:22.576Z,4.50
2018-02-20T06:06:50.855Z,4.50
2018-02-20T06:09:19.015Z,4.50
2018-02-20T06:11:47.196Z,4.40
2018-02-20T06:14:15.376Z,4.40
2018-02-20T06:16:43.936Z,4.50
2018-02-20T06:19:12.416Z,4.50
2018-02-20T06:24:15.736Z,4.30
2018-02-20T06:26:44.137Z,4.30
2018-02-20T06:29:13.216Z,4.40
2018-02-20T06:31:41.496Z,4.30
2018-02-20T06:34:09.876Z,4.40
2018-02-20T06:36:39.017Z,4.30
2018-02-20T06:39:07.236Z,4.30
2018-02-20T06:41:36.438Z,4.20
2018-02-20T06:44:04.495Z,4.20
2018-02-20T06:46:32.556Z,4.20
2018-02-20T06:49:01.056Z,4.20
2018-02-20T06:51:29.236Z,4.30
2018-02-20T06:53:57.696Z,4.30
2018-02-20T06:56:26.176Z,4.50
2018-02-20T06:58:54.576Z,4.50
2018-02-20T07:01:22.596Z,4.40
2018-02-20T07:03:50.876Z,4.40
2018-02-20T07:06:19.110Z,4.30
2018-02-20T07:08:47.976Z,4.40
2018-02-20T07:11:17.716Z,4.40
2018-02-20T07:13:46.876Z,4.50
2018-02-20T07:16:15.056Z,4.50
2018-02-20T07:18:43.336Z,4.40
2018-02-20T07:21:11.500Z,4.40
2018-02-20T07:23:39.576Z,4.40
2018-02-20T07:26:07.856Z,4.40
2018-02-20T07:28:35.916Z,4.40
2018-02-20T07:31:05.856Z,4.40
2018-02-20T07:33:35.135Z,4.50
2018-02-20T07:36:03.516Z,4.40
2018-02-20T07:38:31.897Z,4.50
2018-02-20T07:41:00.155Z,4.60
2018-02-20T07:43:28.316Z,4.70
2018-02-20T07:45:56.876Z,4.80
2018-02-20T07:48:25.077Z,4.90
2018-02-20T07:50:53.236Z,4.90
2018-02-20T07:53:21.656Z,4.90
2018-02-20T07:55:51.056Z,4.90
2018-02-20T07:58:19.221Z,4.90
2018-02-20T08:00:48.196Z,4.80
2018-02-20T08:03:16.655Z,4.80
2018-02-20T08:05:44.676Z,4.70
2018-02-20T08:08:13.676Z,4.80
2018-02-20T08:10:42.836Z,4.80
2018-02-20T08:13:11.016Z,4.70
2018-02-20T08:15:39.296Z,4.80
2018-02-20T08:18:07.536Z,4.70
2018-02-20T08:20:35.636Z,4.70
2018-02-20T08:23:03.835Z,4.70
2018-02-20T08:25:33.016Z,4.70
2018-02-20T08:28:01.095Z,4.70
2018-02-20T08:30:30.076Z,4.80
2018-02-20T08:32:58.456Z,4.80
2018-02-20T08:35:26.519Z,4.90
2018-02-20T08:37:54.799Z,4.90
2018-02-20T08:40:23.076Z,4.90
2018-02-20T08:42:51.675Z,4.80
2018-02-20T08:45:20.855Z,4.90
2018-02-20T08:47:49.240Z,4.90
2018-02-20T08:50:17.396Z,4.90
2018-02-20T08:52:45.656Z,4.90
2018-02-20T08:55:14.016Z,4.80
2018-02-20T08:57:42.502Z,4.80
2018-02-20T09:00:10.954Z,4.70
2018-02-20T09:02:39.176Z,4.70
2018-02-20T09:05:07.579Z,4.70
2018-02-20T09:07:35.856Z,4.70
2018-02-20T09:10:05.017Z,4.70
2018-02-20T09:12:33.401Z,4.60
2018-02-20T09:15:01.899Z,4.70
2018-02-20T09:17:30.078Z,4.80
2018-02-20T09:19:58.259Z,4.80
2018-02-20T09:22:27.418Z,4.60
2018-02-20T09:24:55.825Z,4.60
2018-02-20T09:27:24.322Z,4.60
2018-02-20T09:29:53.390Z,4.50
2018-02-20T09:32:21.790Z,4.50
2018-02-20T09:34:50.871Z,4.50
2018-02-20T09:37:19.330Z,4.50
2018-02-20T09:39:47.930Z,4.50
2018-02-20T09:42:16.971Z,4.50
2018-02-20T09:44:45.211Z,4.60
2018-02-20T09:47:14.389Z,4.60
2018-02-20T09:49:42.450Z,4.60
2018-02-20T09:52:10.630Z,4.50
2018-02-20T09:54:38.849Z,4.50
2018-02-20T09:57:07.071Z,4.50
2018-02-20T09:59:35.397Z,4.60
2018-02-20T10:02:03.729Z,4.60
2018-02-20T10:04:31.929Z,4.60
2018-02-20T10:07:01.129Z,4.80
2018-02-20T10:09:29.990Z,4.80
2018-02-20T10:11:58.171Z,4.70
2018-02-20T10:14:26.768Z,4.80
2018-02-20T10:16:56.070Z,4.60
2018-02-20T10:19:25.149Z,4.70
2018-02-20T10:21:55.269Z,4.60
2018-02-20T10:24:23.649Z,4.60
2018-02-20T10:26:52.329Z,4.70
2018-02-20T10:29:21.189Z,4.60
2018-02-20T10:31:49.589Z,4.70
2018-02-20T10:34:17.989Z,4.70
2018-02-20T10:36:47.369Z,4.90
2018-02-20T10:39:16.469Z,4.80
2018-02-20T10:41:44.629Z,4.80
2018-02-20T10:44:12.789Z,4.90
2018-02-20T10:46:41.093Z,4.80
2018-02-20T10:49:10.390Z,4.80
2018-02-20T10:51:38.550Z,4.80
2018-02-20T10:54:06.709Z,4.90
2018-02-20T10:56:35.009Z,4.80
2018-02-20T10:59:03.284Z,4.80
2018-02-20T11:01:31.643Z,4.90
2018-02-20T11:03:59.864Z,5.00
2018-02-20T11:06:29.144Z,5.00
2018-02-20T11:08:57.325Z,5.00
2018-02-20T11:11:26.384Z,4.90
2018-02-20T11:13:54.564Z,4.90
2018-02-20T11:16:22.843Z,4.90
2018-02-20T11:18:51.025Z,4.90
2018-02-20T11:21:19.295Z,4.90
2018-02-20T11:23:49.016Z,4.90
2018-02-20T11:26:18.116Z,4.80
2018-02-20T11:28:47.195Z,4.90
2018-02-20T11:31:16.495Z,4.90
2018-02-20T11:33:45.077Z,4.90
2018-02-20T11:36:13.135Z,4.90
2018-02-20T11:38:41.555Z,4.90
2018-02-20T11:41:10.637Z,5.00
2018-02-20T11:43:39.935Z,4.90
2018-02-20T11:46:09.016Z,5.10
2018-02-20T11:48:37.415Z,5.10
2018-02-20T11:51:06.316Z,5.00
2018-02-20T11:53:35.475Z,5.10
2018-02-20T11:56:03.876Z,5.00
2018-02-20T11:58:32.695Z,5.00
2018-02-20T12:01:00.916Z,5.00
2018-02-20T12:03:29.155Z,5.00
2018-02-20T12:05:57.375Z,4.90
2018-02-20T12:08:25.715Z,4.80
2018-02-20T12:10:54.155Z,4.70
2018-02-20T12:13:23.535Z,4.70
2018-02-20T12:15:52.116Z,4.70
2018-02-20T12:18:20.297Z,4.60
2018-02-20T12:20:49.275Z,4.60
2018-02-20T12:23:17.477Z,4.60
2018-02-20T12:25:46.556Z,4.60
2018-02-20T12:28:15.675Z,4.70
2018-02-20T12:30:44.115Z,4.70
2018-02-20T12:33:12.395Z,4.70
2018-02-20T12:35:40.556Z,4.60
2018-02-20T12:38:10.356Z,4.50
2018-02-20T12:40:38.655Z,4.50
2018-02-20T12:43:06.814Z,4.60
2018-02-20T12:45:35.095Z,4.60
2018-02-20T12:48:03.475Z,4.70
2018-02-20T12:50:31.836Z,4.70
2018-02-20T12:53:00.020Z,4.70
2018-02-20T12:55:28.314Z,4.60
2018-02-20T12:57:57.395Z,4.60
2018-02-20T13:00:25.776Z,4.60
2018-02-20T13:02:54.155Z,4.50
2018-02-20T13:05:22.335Z,4.50
2018-02-20T13:07:50.695Z,4.40
2018-02-20T13:10:19.655Z,4.30
2018-02-20T13:12:47.978Z,4.30
2018-02-20T13:15:16.257Z,4.30
2018-02-20T13:17:44.736Z,4.30
2018-02-20T13:20:14.035Z,4.20
2018-02-20T13:22:42.615Z,4.20
2018-02-20T13:25:10.855Z,4.30
2018-02-20T13:27:39.312Z,4.50
2018-02-20T13:30:07.756Z,4.40
2018-02-20T13:32:36.856Z,4.40
2018-02-20T13:35:06.038Z,4.40
2018-02-20T13:37:34.435Z,4.40
2018-02-20T13:40:03.356Z,4.40
2018-02-20T13:42:31.776Z,4.40
2018-02-20T13:45:00.256Z,4.40
2018-02-20T13:47:28.437Z,4.40
2018-02-20T13:49:56.674Z,4.40
2018-02-20T13:52:25.282Z,4.50
2018-02-20T13:54:53.464Z,4.40
2018-02-20T13:57:21.648Z,4.30
2018-02-20T13:59:49.908Z,4.30
2018-02-20T14:02:18.189Z,4.20
2018-02-20T14:04:46.571Z,4.40
2018-02-20T14:07:14.846Z,4.30
2018-02-20T14:09:44.646Z,4.10
2018-02-20T14:12:12.825Z,4.10
2018-02-20T14:14:41.928Z,4.20
2018-02-20T14:17:09.984Z,4.20
2018-02-20T14:19:38.384Z,4.10
2018-02-20T14:22:07.601Z,4.00
2018-02-20T14:24:35.952Z,4.00
2018-02-20T14:27:04.211Z,3.90
2018-02-20T14:29:32.531Z,3.90
2018-02-20T14:32:00.870Z,4.00
2018-02-20T14:34:29.130Z,4.00
2018-02-20T14:36:57.431Z,4.00
2018-02-20T14:39:25.511Z,4.00
2018-02-20T14:41:54.371Z,3.90
2018-02-20T14:44:22.633Z,3.90
2018-02-20T14:46:50.830Z,3.80
2018-02-20T14:49:19.047Z,3.80
2018-02-20T14:51:47.481Z,3.80
2018-02-20T14:54:15.851Z,3.70
2018-02-20T14:56:43.930Z,3.70
2018-02-20T14:59:12.212Z,3.60
2018-02-20T15:01:41.614Z,3.70
2018-02-20T15:04:10.111Z,3.70
2018-02-20T15:06:39.091Z,3.60
2018-02-20T15:09:07.593Z,3.60
2018-02-20T15:11:36.647Z,3.60
2018-02-20T15:14:06.348Z,3.60
2018-02-20T15:16:34.632Z,3.70
2018-02-20T15:19:03.007Z,3.70
2018-02-20T15:21:31.267Z,3.70
2018-02-20T15:23:59.567Z,3.80
2018-02-20T15:26:28.066Z,3.80
2018-02-20T15:28:57.048Z,3.90
2018-02-20T15:31:25.326Z,3.90
2018-02-20T15:33:53.587Z,3.90
2018-02-20T15:36:21.868Z,3.90
2018-02-20T15:38:49.988Z,3.80
2018-02-20T15:41:18.107Z,4.50
2018-02-20T15:43:46.507Z,3.90
2018-02-20T15:46:15.392Z,3.90
2018-02-20T15:48:44.886Z,3.90
2018-02-20T15:51:13.269Z,3.90
2018-02-20T15:53:41.847Z,3.90
2018-02-20T15:56:10.327Z,3.80
2018-02-20T15:58:38.708Z,3.80
2018-02-20T16:01:07.287Z,2.80
2018-02-20T16:03:35.347Z,3.60
2018-02-20T16:06:03.607Z,3.50
2018-02-20T16:08:31.787Z,3.40
2018-02-20T16:11:00.248Z,3.40
2018-02-20T16:13:28.468Z,3.40
2018-02-20T16:15:58.367Z,3.50
2018-02-20T16:18:27.068Z,3.50
2018-02-20T16:20:56.251Z,3.40
2018-02-20T16:23:24.828Z,3.30
2018-02-20T16:25:53.208Z,3.30
2018-02-20T16:28:21.469Z,3.20
2018-02-20T16:30:49.549Z,3.40
2018-02-20T16:33:17.927Z,3.40
2018-02-20T16:35:46.068Z,3.80
2018-02-20T16:38:14.148Z,3.90
2018-02-20T16:40:42.367Z,3.90
2018-02-20T16:43:11.467Z,3.80
2018-02-20T16:45:40.448Z,3.60
2018-02-20T16:48:08.709Z,3.60
2018-02-20T16:50:36.887Z,3.60
2018-02-20T16:53:05.187Z,3.60
2018-02-20T16:55:34.867Z,3.60
2018-02-20T16:58:03.148Z,3.60
2018-02-20T17:00:31.527Z,3.60
2018-02-20T17:03:00.248Z,3.50
2018-02-20T17:05:28.908Z,3.60
2018-02-20T17:07:57.868Z,3.50
2018-02-20T17:10:26.368Z,3.50
2018-02-20T17:12:54.748Z,3.40
2018-02-20T17:15:22.787Z,3.40
2018-02-20T17:17:51.188Z,3.40
2018-02-20T17:20:20.091Z,3.40
2018-02-20T17:22:49.167Z,3.50
2018-02-20T17:25:17.567Z,3.50
2018-02-20T17:27:46.748Z,3.50
2018-02-20T17:30:15.031Z,3.50
2018-02-20T17:32:43.186Z,3.60
2018-02-20T17:35:11.468Z,3.60
2018-02-20T17:37:39.846Z,3.60
2018-02-20T17:40:08.227Z,3.50
2018-02-20T17:42:36.287Z,3.50
2018-02-20T17:45:04.687Z,3.40
2018-02-20T17:47:32.947Z,3.30
2018-02-20T17:50:01.328Z,3.40
2018-02-20T17:52:29.708Z,3.40
2018-02-20T17:54:58.015Z,3.40
2018-02-20T17:57:26.767Z,3.40
2018-02-20T17:59:54.947Z,3.40
2018-02-20T18:02:23.427Z,3.50
2018-02-20T18:04:51.708Z,3.50
2018-02-20T18:07:20.687Z,3.60
2018-02-20T18:09:49.286Z,3.60
2018-02-20T18:12:17.786Z,3.60
2018-02-20T18:14:46.347Z,3.50
2018-02-20T18:17:15.767Z,3.60
2018-02-20T18:19:44.967Z,3.60
2018-02-20T18:22:13.347Z,3.60
2018-02-20T18:24:41.747Z,3.50
2018-02-20T18:27:10.188Z,3.50
2018-02-20T18:29:38.948Z,3.60
2018-02-20T18:32:07.287Z,3.60
2018-02-20T18:34:35.926Z,3.50
2018-02-20T18:37:04.208Z,3.50
2018-02-20T18:39:33.387Z,3.70
2018-02-20T18:42:01.726Z,3.60
2018-02-20T18:44:30.047Z,3.70
2018-02-20T18:46:58.327Z,3.70
2018-02-20T18:49:26.607Z,3.60
2018-02-20T18:51:55.587Z,3.60
2018-02-20T18:54:24.126Z,3.60
2018-02-20T18:56:52.307Z,3.60
2018-02-20T18:59:20.668Z,3.70
2018-02-20T19:01:49.128Z,3.70
2018-02-20T19:04:17.167Z,3.70
2018-02-20T19:06:45.348Z,3.60
2018-02-20T19:09:13.607Z,3.50
2018-02-20T19:11:41.887Z,3.50
2018-02-20T19:14:10.108Z,3.40
2018-02-20T19:16:38.447Z,3.40
2018-02-20T19:19:06.507Z,3.40
2018-02-20T19:21:34.686Z,3.50
2018-02-20T19:24:03.386Z,3.50
2018-02-20T19:26:32.707Z,3.40
2018-02-20T19:29:01.128Z,3.40
2018-02-20T19:31:29.647Z,3.30
2018-02-20T19:33:58.848Z,3.40
2018-02-20T19:36:27.926Z,3.30
2018-02-20T19:38:57.226Z,3.20
2018-02-20T19:41:25.550Z,3.20
2018-02-20T19:43:53.807Z,3.20
2018-02-20T19:46:22.150Z,3.20
2018-02-20T19:48:50.327Z,3.80
2018-02-20T19:51:18.287Z,3.30
2018-02-20T19:53:46.887Z,3.20
2018-02-20T19:56:16.187Z,3.10
2018-02-20T19:58:45.267Z,3.10
2018-02-20T20:01:13.747Z,3.10
2018-02-20T20:03:42.127Z,3.10
2018-02-20T20:06:10.367Z,3.10
2018-02-20T20:08:38.447Z,3.10
2018-02-20T20:11:06.867Z,3.10
2018-02-20T20:13:35.728Z,2.90
2018-02-20T20:16:04.131Z,2.90
2018-02-20T20:18:33.107Z,2.90
2018-02-20T20:21:02.928Z,2.80
2018-02-20T20:23:31.089Z,2.80
2018-02-20T20:25:59.288Z,2.90
2018-02-20T20:28:28.267Z,2.90
2018-02-20T20:30:56.427Z,2.90
2018-02-20T20:33:24.809Z,2.90
2018-02-20T20:35:53.068Z,3.00
2018-02-20T20:38:21.527Z,3.00
2018-02-20T20:40:50.149Z,3.00
2018-02-20T20:43:18.768Z,3.10
2018-02-20T20:45:47.268Z,3.10
2018-02-20T20:48:15.709Z,3.10
2018-02-20T20:50:44.989Z,3.10
2018-02-20T20:53:13.309Z,3.00
2018-02-20T20:55:41.648Z,3.10
2018-02-20T20:58:10.748Z,3.00
2018-02-20T21:00:39.010Z,3.00
2018-02-20T21:03:07.248Z,3.00
2018-02-20T21:05:35.667Z,2.90
2018-02-20T21:08:04.768Z,3.10
2018-02-20T21:10:32.928Z,3.00
2018-02-20T21:13:01.249Z,3.00
2018-02-20T21:15:29.588Z,3.00
2018-02-20T21:17:57.768Z,3.00
2018-02-20T21:20:25.889Z,3.00
2018-02-20T21:22:54.189Z,3.00
2018-02-20T21:25:22.567Z,3.00
2018-02-20T21:27:50.772Z,3.10
2018-02-20T21:30:19.807Z,3.10
2018-02-20T21:32:47.950Z,3.10
2018-02-20T21:35:16.087Z,3.10
2018-02-20T21:37:44.467Z,3.00
2018-02-20T21:40:12.747Z,3.00
2018-02-20T21:42:40.849Z,3.10
2018-02-20T21:45:09.807Z,3.10
2018-02-20T21:47:38.107Z,3.10
2018-02-20T21:50:07.627Z,3.00
2018-02-20T21:52:36.107Z,3.00
2018-02-20T21:55:04.427Z,3.00
2018-02-20T21:57:33.052Z,3.10
2018-02-20T22:00:02.129Z,3.10
2018-02-20T22:02:30.510Z,3.00
2018-02-20T22:04:59.627Z,3.10
2018-02-20T22:07:28.907Z,3.10
2018-02-20T22:09:57.253Z,3.10
2018-02-20T22:12:25.688Z,3.10
2018-02-20T22:14:54.827Z,3.20
2018-02-20T22:17:22.788Z,3.20
2018-02-20T22:19:50.906Z,3.20
2018-02-20T22:22:19.988Z,3.30
2018-02-20T22:24:48.268Z,3.30
2018-02-20T22:27:16.427Z,3.30
2018-02-20T22:29:44.793Z,3.20
2018-02-20T22:32:12.967Z,3.20
2018-02-20T22:34:41.047Z,3.10
2018-02-20T22:37:09.207Z,3.10
2018-02-20T22:39:37.407Z,3.00
2018-02-20T22:42:06.387Z,3.00
2018-02-20T22:44:34.568Z,3.00
2018-02-20T22:47:02.847Z,3.10
2018-02-20T22:49:31.007Z,3.00
2018-02-20T22:51:59.907Z,3.10
2018-02-20T22:54:27.967Z,3.10
2018-02-20T22:56:56.028Z,3.00
2018-02-20T22:59:24.207Z,3.00
2018-02-20T23:01:52.627Z,3.00
2018-02-20T23:04:20.648Z,2.90
2018-02-20T23:06:48.889Z,3.00
2018-02-20T23:09:17.027Z,3.00
2018-02-20T23:11:48.227Z,3.00
2018-02-20T23:14:16.567Z,3.00
2018-02-20T23:16:45.009Z,3.00
2018-02-20T23:19:14.108Z,2.90
2018-02-20T23:21:42.488Z,2.90
2018-02-20T23:24:10.668Z,2.80
2018-02-20T23:26:39.727Z,2.80
2018-02-20T23:29:08.230Z,2.80
2018-02-20T23:31:36.607Z,2.80
2018-02-20T23:34:04.687Z,2.80
2018-02-20T23:36:32.948Z,2.90
2018-02-20T23:39:02.511Z,3.00
2018-02-20T23:41:30.952Z,3.00
2018-02-20T23:44:00.128Z,3.10
2018-02-20T23:46:28.287Z,3.00
2018-02-20T23:48:56.348Z,2.90
2018-02-20T23:51:30.147Z,2.90
2018-02-20T23:53:58.268Z,3.00
2018-02-20T23:56:27.448Z,2.90
2018-02-20T23:58:55.727Z,2.90
